createdAt,value
2018-07-12T00:00:32.535Z,100440.62
2018-07-12T00:03:29.665Z,100440.12
2018-07-12T00:06:27.747Z,100454.53
2018-07-12T00:09:25.149Z,100437.87
2018-07-12T00:12:22.462Z,100442.39
2018-07-12T00:15:20.510Z,100439.78
2018-07-12T00:18:18.613Z,100440.78
2018-07-12T00:21:15.585Z,100440.73
2018-07-12T00:24:13.543Z,100442.10
2018-07-12T00:27:10.978Z,100435.77
2018-07-12T00:30:08.148Z,100436.62
2018-07-12T00:33:06.001Z,100429.80
2018-07-12T00:36:03.827Z,100425.97
2018-07-12T00:39:00.845Z,100422.81
2018-07-12T00:41:58.387Z,100420.98
2018-07-12T00:44:55.605Z,100428.13
2018-07-12T00:47:52.618Z,100417.30
2018-07-12T00:50:49.902Z,100416.01
2018-07-12T00:53:46.730Z,100421.31
2018-07-12T00:56:43.899Z,100417.11
2018-07-12T00:59:40.951Z,100412.05
2018-07-12T01:02:38.075Z,100405.92
2018-07-12T01:05:35.977Z,100409.27
2018-07-12T01:08:33.837Z,100412.78
2018-07-12T01:11:31.479Z,100404.47
2018-07-12T01:14:28.823Z,100414.92
2018-07-12T01:17:26.503Z,100411.09
2018-07-12T01:20:24.082Z,100424.53
2018-07-12T01:23:21.265Z,100424.03
2018-07-12T01:26:18.735Z,100431.66
2018-07-12T01:29:15.874Z,100429.91
2018-07-12T01:32:12.935Z,100428.58
2018-07-12T01:35:10.950Z,100421.62
2018-07-12T01:38:08.875Z,100421.45
2018-07-12T01:41:06.554Z,100429.91
2018-07-12T01:44:04.302Z,100430.73
2018-07-12T01:47:02.358Z,100430.02
2018-07-12T01:49:59.429Z,100437.00
2018-07-12T01:52:56.473Z,100435.00
2018-07-12T01:55:54.675Z,100433.50
2018-07-12T01:58:52.214Z,100432.17
2018-07-12T02:01:49.254Z,100431.34
2018-07-12T02:04:47.045Z,100431.16
2018-07-12T02:07:45.006Z,100431.16
2018-07-12T02:10:42.382Z,100430.92
2018-07-12T02:13:39.609Z,100424.44
2018-07-12T02:16:37.367Z,100426.45
2018-07-12T02:19:34.775Z,100417.81
2018-07-12T02:22:32.823Z,100412.64
2018-07-12T02:25:30.482Z,100411.22
2018-07-12T02:28:27.733Z,100411.84
2018-07-12T02:31:24.726Z,100410.52
2018-07-12T02:34:22.142Z,100405.17
2018-07-12T02:37:19.430Z,100412.41
2018-07-12T02:40:16.471Z,100405.98
2018-07-12T02:43:13.734Z,100406.81
2018-07-12T02:46:11.832Z,100412.17
2018-07-12T02:49:10.116Z,100404.22
2018-07-12T02:52:07.384Z,100411.26
2018-07-12T02:55:04.503Z,100413.42
2018-07-12T02:58:01.579Z,100415.56
2018-07-12T03:00:59.407Z,100421.13
2018-07-12T03:03:56.945Z,100417.56
2018-07-12T03:06:54.029Z,100420.73
2018-07-12T03:09:51.707Z,100428.13
2018-07-12T03:12:49.198Z,100425.66
2018-07-12T03:15:46.575Z,100423.00
2018-07-12T03:18:43.906Z,100430.51
2018-07-12T03:21:40.898Z,100434.42
2018-07-12T03:24:38.335Z,100430.22
2018-07-12T03:27:35.647Z,100426.53
2018-07-12T03:30:32.941Z,100427.72
2018-07-12T03:33:30.078Z,100432.56
2018-07-12T03:36:27.358Z,100426.08
2018-07-12T03:39:24.498Z,100424.20
2018-07-12T03:42:21.382Z,100432.66
2018-07-12T03:45:18.399Z,100429.12
2018-07-12T03:48:16.242Z,100429.44
2018-07-12T03:51:13.729Z,100430.41
2018-07-12T03:54:11.471Z,100430.72
2018-07-12T03:57:08.563Z,100434.74
2018-07-12T04:00:06.534Z,100429.07
2018-07-12T04:03:04.074Z,100424.53
2018-07-12T04:06:01.862Z,100428.42
2018-07-12T04:08:59.542Z,100425.23
2018-07-12T04:11:56.903Z,100430.14
2018-07-12T04:14:54.419Z,100432.16
2018-07-12T04:17:51.655Z,100427.09
2018-07-12T04:20:49.675Z,100424.08
2018-07-12T04:23:47.679Z,100429.23
2018-07-12T04:26:44.809Z,100428.55
2018-07-12T04:29:41.847Z,100437.19
2018-07-12T04:32:39.765Z,100444.95
2018-07-12T04:35:36.911Z,100444.33
2018-07-12T04:38:34.975Z,100452.70
2018-07-12T04:41:32.951Z,100453.89
2018-07-12T04:44:29.882Z,100458.86
2018-07-12T04:47:27.259Z,100463.87
2018-07-12T04:50:25.210Z,100465.95
2018-07-12T04:53:22.675Z,100461.05
2018-07-12T04:56:20.103Z,100467.69
2018-07-12T04:59:17.524Z,100469.23
2018-07-12T05:02:14.723Z,100461.78
2018-07-12T05:05:12.316Z,100472.21
2018-07-12T05:08:09.878Z,100470.14
2018-07-12T05:11:07.059Z,100468.71
2018-07-12T05:14:05.221Z,100468.20
2018-07-12T05:17:02.578Z,100465.66
2018-07-12T05:20:00.283Z,100463.52
2018-07-12T05:22:57.718Z,100468.96
2018-07-12T05:25:54.857Z,100465.88
2018-07-12T05:28:52.335Z,100469.92
2018-07-12T05:31:49.462Z,100467.98
2018-07-12T05:34:46.760Z,100472.48
2018-07-12T05:37:44.413Z,100478.50
2018-07-12T05:40:41.658Z,100476.98
2018-07-12T05:43:39.806Z,100477.82
2018-07-12T05:46:37.308Z,100482.62
2018-07-12T05:49:34.594Z,100483.75
2018-07-12T05:52:31.722Z,100485.26
2018-07-12T05:55:29.806Z,100489.42
2018-07-12T05:58:27.390Z,100489.61
2018-07-12T06:01:30.749Z,100484.83
2018-07-12T06:04:27.811Z,100492.36
2018-07-12T06:07:31.958Z,100497.20
2018-07-12T06:10:30.025Z,100496.20
2018-07-12T06:13:27.280Z,100501.87
2018-07-12T06:16:24.539Z,100508.34
2018-07-12T06:19:21.971Z,100506.34
2018-07-12T06:22:20.001Z,100508.17
2018-07-12T06:25:17.697Z,100507.80
2018-07-12T06:28:15.875Z,100514.63
2018-07-12T06:31:13.973Z,100518.48
2018-07-12T06:34:11.207Z,100516.84
2018-07-12T06:37:08.987Z,100514.48
2018-07-12T06:40:06.785Z,100518.80
2018-07-12T06:43:04.364Z,100513.31
2018-07-12T06:46:01.559Z,100514.60
2018-07-12T06:48:58.957Z,100521.39
2018-07-12T06:51:56.796Z,100521.10
2018-07-12T06:54:54.879Z,100524.36
2018-07-12T06:57:52.052Z,100514.38
2018-07-12T07:00:49.279Z,100521.98
2018-07-12T07:03:47.207Z,100521.38
2018-07-12T07:06:44.506Z,100522.94
2018-07-12T07:25:47.372Z,100519.64
2018-07-12T07:28:45.531Z,100522.25
2018-07-12T07:31:43.567Z,100529.85
2018-07-12T07:34:41.782Z,100530.17
2018-07-12T07:37:38.928Z,100534.44
2018-07-12T07:40:36.245Z,100528.90
2018-07-12T07:43:33.415Z,100526.82
2018-07-12T07:46:30.600Z,100527.28
2018-07-12T07:49:27.802Z,100533.01
2018-07-12T07:52:25.505Z,100535.94
2018-07-12T07:55:22.884Z,100536.94
2018-07-12T07:58:20.365Z,100534.71
2018-07-12T08:01:18.544Z,100536.62
2018-07-12T08:04:16.497Z,100543.86
2018-07-12T08:07:13.745Z,100528.84
2018-07-12T08:10:11.151Z,100537.19
2018-07-12T08:13:08.406Z,100540.72
2018-07-12T08:16:05.921Z,100538.17
2018-07-12T08:19:03.238Z,100537.28
2018-07-12T08:22:00.569Z,100537.66
2018-07-12T08:24:58.606Z,100537.13
2018-07-12T08:28:02.747Z,100533.70
2018-07-12T08:30:59.867Z,100525.27
2018-07-12T08:33:56.846Z,100527.36
2018-07-12T08:36:54.019Z,100533.20
2018-07-12T08:39:51.961Z,100536.11
2018-07-12T08:42:49.479Z,100528.53
2018-07-12T08:45:46.695Z,100531.66
2018-07-12T08:48:44.690Z,100541.35
2018-07-12T08:51:42.685Z,100535.77
2018-07-12T08:54:40.273Z,100530.48
2018-07-12T08:57:37.979Z,100527.20
2018-07-12T09:00:35.658Z,100528.91
2018-07-12T09:03:32.889Z,100521.62
2018-07-12T09:06:30.455Z,100520.67
2018-07-12T09:09:28.874Z,100515.08
2018-07-12T09:12:26.199Z,100525.97
2018-07-12T09:15:23.810Z,100522.06
2018-07-12T09:18:21.247Z,100530.72
2018-07-12T09:21:18.529Z,100527.56
2018-07-12T09:24:16.751Z,100533.06
2018-07-12T09:27:15.208Z,100530.39
2018-07-12T09:30:13.038Z,100540.95
2018-07-12T09:33:10.810Z,100544.75
2018-07-12T09:36:08.142Z,100540.05
2018-07-12T09:39:05.605Z,100552.13
2018-07-12T09:42:03.387Z,100540.56
2018-07-12T09:45:01.429Z,100540.03
2018-07-12T09:47:58.862Z,100535.91
2018-07-12T09:50:56.302Z,100542.73
2018-07-12T09:53:55.114Z,100537.39
2018-07-12T09:57:04.394Z,100535.03
2018-07-12T10:00:01.999Z,100533.86
2018-07-12T10:03:06.246Z,100532.56
2018-07-12T10:06:06.471Z,100535.33
2018-07-12T10:09:07.153Z,100527.94
2018-07-12T10:12:10.759Z,100539.58
2018-07-12T10:15:14.856Z,100544.45
2018-07-12T10:18:18.707Z,100544.41
2018-07-12T10:21:16.232Z,100541.62
2018-07-12T10:24:14.480Z,100532.32
2018-07-12T10:27:12.244Z,100531.25
2018-07-12T10:30:09.988Z,100516.41
2018-07-12T10:33:07.381Z,100530.56
2018-07-12T10:36:04.564Z,100536.81
2018-07-12T10:39:01.691Z,100540.91
2018-07-12T10:41:59.603Z,100531.80
2018-07-12T10:44:57.666Z,100536.66
2018-07-12T10:47:54.730Z,100533.08
2018-07-12T10:50:52.270Z,100526.19
2018-07-12T10:53:49.650Z,100531.21
2018-07-12T10:56:47.000Z,100530.24
2018-07-12T10:59:44.327Z,100522.13
2018-07-12T11:02:41.328Z,100514.68
2018-07-12T11:05:39.378Z,100511.19
2018-07-12T11:08:37.609Z,100519.61
2018-07-12T11:11:34.926Z,100526.55
2018-07-12T11:14:32.796Z,100523.89
2018-07-12T11:17:30.177Z,100525.77
2018-07-12T11:20:27.303Z,100515.42
2018-07-12T11:23:25.100Z,100508.05
2018-07-12T11:26:22.977Z,100497.14
2018-07-12T11:29:23.547Z,100500.34
2018-07-12T11:32:24.038Z,100506.68
2018-07-12T11:35:21.166Z,100509.88
2018-07-12T11:38:18.631Z,100510.05
2018-07-12T11:41:15.831Z,100506.56
2018-07-12T11:44:13.907Z,100504.94
2018-07-12T11:47:11.062Z,100498.16
2018-07-12T11:50:08.652Z,100499.84
2018-07-12T11:53:06.512Z,100497.68
2018-07-12T11:56:04.038Z,100507.48
2018-07-12T11:59:01.379Z,100500.88
2018-07-12T12:01:58.783Z,100496.73
2018-07-12T12:04:56.071Z,100497.53
2018-07-12T12:07:53.775Z,100486.91
2018-07-12T12:10:52.118Z,100496.39
2018-07-12T12:13:49.523Z,100489.71
2018-07-12T12:16:46.970Z,100487.09
2018-07-12T12:19:44.243Z,100487.07
2018-07-12T12:22:41.953Z,100481.42
2018-07-12T12:25:39.810Z,100491.70
2018-07-12T12:28:37.397Z,100502.63
2018-07-12T12:31:35.226Z,100498.66
2018-07-12T12:34:32.798Z,100500.23
2018-07-12T12:37:30.830Z,100501.78
2018-07-12T12:40:28.427Z,100503.12
2018-07-12T12:43:25.965Z,100504.17
2018-07-12T12:46:24.584Z,100513.86
2018-07-12T12:49:22.555Z,100509.02
2018-07-12T12:52:20.078Z,100509.09
2018-07-12T12:55:17.646Z,100508.69
2018-07-12T12:58:15.295Z,100501.05
2018-07-12T13:01:12.435Z,100503.55
2018-07-12T13:04:09.775Z,100493.84
2018-07-12T13:07:06.992Z,100497.22
2018-07-12T13:10:04.596Z,100505.18
2018-07-12T13:13:02.331Z,100503.55
2018-07-12T13:15:59.852Z,100505.81
2018-07-12T13:18:57.497Z,100505.22
2018-07-12T13:21:54.999Z,100507.80
2018-07-12T13:24:52.141Z,100516.02
2018-07-12T13:27:49.816Z,100515.43
2018-07-12T13:30:47.114Z,100525.70
2018-07-12T13:33:44.236Z,100514.67
2018-07-12T13:36:42.003Z,100520.81
2018-07-12T13:39:39.195Z,100510.13
2018-07-12T13:42:37.155Z,100512.17
2018-07-12T13:45:34.226Z,100514.67
2018-07-12T13:48:31.522Z,100520.07
2018-07-12T13:51:29.004Z,100516.88
2018-07-12T13:54:27.857Z,100516.45
2018-07-12T13:57:25.049Z,100509.50
2018-07-12T14:00:22.509Z,100513.14
2018-07-12T14:03:19.871Z,100504.07
2018-07-12T14:06:17.822Z,100500.80
2018-07-12T14:09:15.981Z,100504.13
2018-07-12T14:12:13.373Z,100506.75
2018-07-12T14:15:10.915Z,100503.21
2018-07-12T14:18:08.455Z,100502.21
2018-07-12T14:21:06.122Z,100500.54
2018-07-12T14:24:03.917Z,100489.64
2018-07-12T14:27:01.110Z,100492.78
2018-07-12T14:29:58.654Z,100493.91
2018-07-12T14:32:56.099Z,100492.07
2018-07-12T14:35:54.254Z,100496.78
2018-07-12T14:38:51.732Z,100497.64
2018-07-12T14:41:49.108Z,100496.82
2018-07-12T14:44:46.339Z,100496.30
2018-07-12T14:47:43.910Z,100508.81
2018-07-12T14:50:42.014Z,100504.38
2018-07-12T14:53:39.336Z,100507.24
2018-07-12T14:56:36.890Z,100505.52
2018-07-12T14:59:34.651Z,100513.04
2018-07-12T15:02:32.708Z,100520.61
2018-07-12T15:05:30.811Z,100519.16
2018-07-12T15:08:28.901Z,100518.82
2018-07-12T15:11:25.974Z,100526.27
2018-07-12T15:14:23.240Z,100529.44
2018-07-12T15:17:20.910Z,100525.94
2018-07-12T15:20:18.199Z,100526.53
2018-07-12T15:23:15.422Z,100527.52
2018-07-12T15:26:12.553Z,100529.13
2018-07-12T15:29:10.121Z,100529.27
2018-07-12T15:32:08.134Z,100523.48
2018-07-12T15:35:06.186Z,100531.22
2018-07-12T15:38:03.449Z,100534.90
2018-07-12T15:41:00.968Z,100533.78
2018-07-12T15:43:58.259Z,100534.42
2018-07-12T15:46:55.528Z,100541.23
2018-07-12T15:49:52.592Z,100535.00
2018-07-12T15:52:49.863Z,100531.64
2018-07-12T15:55:47.959Z,100540.68
2018-07-12T15:58:45.189Z,100532.52
2018-07-12T16:01:43.135Z,100526.58
2018-07-12T16:04:40.814Z,100527.58
2018-07-12T16:07:38.881Z,100529.91
2018-07-12T16:10:36.827Z,100524.89
2018-07-12T16:13:34.511Z,100529.84
2018-07-12T16:16:32.455Z,100527.61
2018-07-12T16:19:29.851Z,100524.32
2018-07-12T16:22:27.152Z,100517.77
2018-07-12T16:25:25.287Z,100518.14
2018-07-12T16:28:22.756Z,100518.14
2018-07-12T16:31:20.113Z,100515.11
2018-07-12T16:34:18.360Z,100516.97
2018-07-12T16:37:15.825Z,100523.10
2018-07-12T16:40:13.275Z,100522.09
2018-07-12T16:43:11.186Z,100513.23
2018-07-12T16:46:08.432Z,100523.56
2018-07-12T16:49:06.703Z,100524.10
2018-07-12T16:52:04.249Z,100520.69
2018-07-12T16:55:02.254Z,100519.19
2018-07-12T16:57:59.269Z,100520.19
2018-07-12T17:00:57.402Z,100519.94
2018-07-12T17:03:55.248Z,100520.75
2018-07-12T17:06:52.386Z,100521.52
2018-07-12T17:09:50.418Z,100514.69
2018-07-12T17:12:48.579Z,100510.37
2018-07-12T17:15:46.350Z,100507.70
2018-07-12T17:18:44.310Z,100513.91
2018-07-12T17:21:41.574Z,100513.82
2018-07-12T17:24:39.747Z,100519.66
2018-07-12T17:27:37.774Z,100533.42
2018-07-12T17:30:35.613Z,100531.58
2018-07-12T17:33:33.350Z,100531.92
2018-07-12T17:36:31.436Z,100535.87
2018-07-12T17:39:29.504Z,100535.39
2018-07-12T17:42:27.245Z,100521.78
2018-07-12T17:45:24.468Z,100525.80
2018-07-12T17:48:22.399Z,100525.29
2018-07-12T17:51:19.886Z,100535.45
2018-07-12T17:54:17.425Z,100537.03
2018-07-12T17:57:15.168Z,100527.29
2018-07-12T18:00:12.902Z,100527.50
2018-07-12T18:03:10.274Z,100533.16
2018-07-12T18:06:08.137Z,100525.83
2018-07-12T18:09:05.341Z,100536.50
2018-07-12T18:12:02.642Z,100534.89
2018-07-12T18:15:00.593Z,100541.89
2018-07-12T18:17:57.772Z,100539.07
2018-07-12T18:20:55.217Z,100533.72
2018-07-12T18:23:52.620Z,100538.37
2018-07-12T18:26:50.145Z,100540.55
2018-07-12T18:29:47.822Z,100539.88
2018-07-12T18:32:45.350Z,100541.42
2018-07-12T18:35:43.434Z,100541.09
2018-07-12T18:38:41.401Z,100545.92
2018-07-12T18:41:39.079Z,100545.09
2018-07-12T18:44:37.074Z,100547.27
2018-07-12T18:47:34.828Z,100545.86
2018-07-12T18:50:32.200Z,100554.41
2018-07-12T18:53:29.766Z,100554.27
2018-07-12T18:56:27.526Z,100548.48
2018-07-12T18:59:25.209Z,100555.22
2018-07-12T19:02:23.334Z,100554.09
2018-07-12T19:05:20.719Z,100551.77
2018-07-12T19:08:18.387Z,100550.33
2018-07-12T19:11:16.560Z,100557.44
2018-07-12T19:14:14.270Z,100566.93
2018-07-12T19:17:11.561Z,100564.77
2018-07-12T19:20:08.582Z,100570.14
2018-07-12T19:23:06.848Z,100567.70
2018-07-12T19:26:04.201Z,100576.59
2018-07-12T19:29:01.569Z,100579.59
2018-07-12T19:31:59.020Z,100577.88
2018-07-12T19:34:56.765Z,100577.57
2018-07-12T19:37:54.346Z,100581.44
2018-07-12T19:40:51.543Z,100580.97
2018-07-12T19:43:49.119Z,100584.86
2018-07-12T19:46:47.254Z,100585.66
2018-07-12T19:49:44.192Z,100584.30
2018-07-12T19:52:42.362Z,100581.30
2018-07-12T19:55:39.711Z,100588.66
2018-07-12T19:58:37.414Z,100589.38
2018-07-12T20:01:34.668Z,100594.05
2018-07-12T20:04:32.857Z,100600.41
2018-07-12T20:07:30.092Z,100597.44
2018-07-12T20:10:27.318Z,100601.66
2018-07-12T20:13:24.718Z,100598.67
2018-07-12T20:16:21.871Z,100608.88
2018-07-12T20:19:20.182Z,100612.69
2018-07-12T20:22:17.978Z,100611.86
2018-07-12T20:25:15.421Z,100615.86
2018-07-12T20:28:13.547Z,100618.02
2018-07-12T20:31:11.404Z,100628.88
2018-07-12T20:34:08.579Z,100621.03
2018-07-12T20:37:06.642Z,100620.88
2018-07-12T20:40:04.725Z,100627.05
2018-07-12T20:43:01.969Z,100627.39
2018-07-12T20:45:59.869Z,100631.00
2018-07-12T20:48:57.438Z,100637.50
2018-07-12T20:51:55.007Z,100639.23
2018-07-12T20:54:53.138Z,100636.41
2018-07-12T20:57:50.457Z,100639.59
2018-07-12T21:00:48.036Z,100646.09
2018-07-12T21:03:46.036Z,100654.45
2018-07-12T21:06:44.177Z,100653.16
2018-07-12T21:09:41.772Z,100657.31
2018-07-12T21:12:39.793Z,100660.48
2018-07-12T21:15:37.190Z,100669.03
2018-07-12T21:18:35.287Z,100666.36
2018-07-12T21:21:33.400Z,100664.05
2018-07-12T21:24:31.275Z,100668.70
2018-07-12T21:27:29.240Z,100670.36
2018-07-12T21:30:27.959Z,100672.67
2018-07-12T21:33:25.905Z,100673.89
2018-07-12T21:36:23.099Z,100682.77
2018-07-12T21:39:21.786Z,100679.59
2018-07-12T21:42:19.750Z,100682.43
2018-07-12T21:45:17.295Z,100684.13
2018-07-12T21:48:15.370Z,100688.58
2018-07-12T21:51:13.321Z,100692.92
2018-07-12T21:54:10.923Z,100688.11
2018-07-12T21:57:08.882Z,100687.44
2018-07-12T22:00:06.208Z,100688.47
2018-07-12T22:03:03.320Z,100691.13
2018-07-12T22:06:01.293Z,100683.46
2018-07-12T22:08:58.568Z,100692.61
2018-07-12T22:11:55.762Z,100692.73
2018-07-12T22:14:53.760Z,100692.05
2018-07-12T22:17:50.784Z,100698.20
2018-07-12T22:20:48.487Z,100694.67
2018-07-12T22:23:46.146Z,100698.63
2018-07-12T22:26:43.484Z,100704.91
2018-07-12T22:29:41.627Z,100705.48
2018-07-12T22:32:38.886Z,100705.59
2018-07-12T22:35:36.963Z,100702.75
2018-07-12T22:38:34.359Z,100709.78
2018-07-12T22:41:31.935Z,100704.11
2018-07-12T22:44:29.488Z,100708.91
2018-07-12T22:47:26.963Z,100711.83
2018-07-12T22:50:24.643Z,100717.27
2018-07-12T22:53:21.999Z,100713.92
2018-07-12T22:56:19.042Z,100708.80
2018-07-12T22:59:16.281Z,100705.08
2018-07-12T23:02:14.776Z,100703.06
2018-07-12T23:05:12.130Z,100699.26
2018-07-12T23:08:09.420Z,100703.23
2018-07-12T23:11:07.166Z,100707.66
2018-07-12T23:14:04.504Z,100704.75
2018-07-12T23:17:02.805Z,100707.73
2018-07-12T23:20:09.730Z,100694.95
2018-07-12T23:23:07.135Z,100694.71
2018-07-12T23:26:05.314Z,100701.80
2018-07-12T23:29:03.134Z,100701.53
2018-07-12T23:32:00.957Z,100691.02
2018-07-12T23:34:58.770Z,100690.47
2018-07-12T23:37:55.850Z,100694.92
2018-07-12T23:40:53.689Z,100699.27
2018-07-12T23:43:51.330Z,100693.97
2018-07-12T23:46:49.454Z,100695.47
2018-07-12T23:49:47.676Z,100698.61
2018-07-12T23:52:45.443Z,100707.74
2018-07-12T23:55:43.402Z,100710.89
2018-07-12T23:58:41.180Z,100704.56
